Wetterdaten: Woche 14.03.05 - 20.03.05 (KW11)
Datum Zeit Temperatur Luftfeuchte Luftdruck Niederschlag Windrichtung Wind
14.03.2005 00:00 -4,6 C 75 % 1014 hPa 0,0 l/m N 0,0 km/h (0 Bft)
14.03.2005 01:00 -4,7 C 77 % 1014 hPa 0,0 l/m N 0,0 km/h (0 Bft)
14.03.2005 02:00 -5,0 C 78 % 1014 hPa 0,0 l/m N 0,0 km/h (0 Bft)
14.03.2005 03:00 -5,6 C 79 % 1014 hPa 0,0 l/m N 0,0 km/h (0 Bft)
14.03.2005 04:00 -6,1 C 81 % 1014 hPa 0,0 l/m N 0,0 km/h (0 Bft)
14.03.2005 05:00 -6,5 C 82 % 1014 hPa 0,0 l/m N 0,0 km/h (0 Bft)
14.03.2005 06:00 -7,0 C 83 % 1015 hPa 0,0 l/m N 0,0 km/h (0 Bft)
14.03.2005 07:00 -6,7 C 85 % 1015 hPa 0,0 l/m N 0,0 km/h (0 Bft)
14.03.2005 08:00 -5,1 C 84 % 1016 hPa 0,0 l/m S 1,8 km/h (1 Bft)
14.03.2005 09:00 -1,2 C 73 % 1016 hPa 0,0 l/m O-SO 6,2 km/h (2 Bft)
14.03.2005 10:00 2,6 C 60 % 1016 hPa 0,0 l/m O-SO 10,7 km/h (2 Bft)
14.03.2005 11:00 4,7 C 53 % 1016 hPa 0,0 l/m S-SO 11,4 km/h (2 Bft)
14.03.2005 12:00 6,8 C 45 % 1016 hPa 0,0 l/m S 17,5 km/h (3 Bft)
14.03.2005 13:00 7,8 C 41 % 1016 hPa 0,0 l/m S 19,9 km/h (4 Bft)
14.03.2005 14:00 8,2 C 41 % 1016 hPa 0,0 l/m S 19,0 km/h (3 Bft)
14.03.2005 15:00 7,8 C 43 % 1016 hPa 0,0 l/m S 15,0 km/h (3 Bft)
14.03.2005 16:00 7,8 C 44 % 1015 hPa 0,0 l/m S-SO 6,2 km/h (2 Bft)
14.03.2005 17:00 7,1 C 47 % 1015 hPa 0,0 l/m S 3,9 km/h (1 Bft)
14.03.2005 18:00 5,6 C 51 % 1016 hPa 0,0 l/m N 0,0 km/h (0 Bft)
14.03.2005 19:00 3,6 C 57 % 1016 hPa 0,0 l/m N 0,0 km/h (0 Bft)
14.03.2005 20:00 2,7 C 65 % 1017 hPa 0,0 l/m N 0,0 km/h (0 Bft)
14.03.2005 21:00 3,7 C 68 % 1018 hPa 0,0 l/m SW 7,3 km/h (2 Bft)
14.03.2005 22:00 4,8 C 72 % 1019 hPa 0,0 l/m SW 13,4 km/h (3 Bft)
14.03.2005 23:00 4,0 C 81 % 1020 hPa 0,0 l/m SW 10,8 km/h (2 Bft)
15.03.2005 00:00 3,7 C 80 % 1020 hPa 0,0 l/m S 13,8 km/h (3 Bft)
15.03.2005 01:00 3,1 C 81 % 1020 hPa 0,0 l/m S 6,3 km/h (2 Bft)
15.03.2005 02:00 2,2 C 84 % 1020 hPa 0,0 l/m O-NO 1,5 km/h (1 Bft)
15.03.2005 03:00 1,1 C 86 % 1020 hPa 0,0 l/m N 0,0 km/h (0 Bft)
15.03.2005 04:00 0,3 C 90 % 1020 hPa 0,0 l/m N 0,0 km/h (0 Bft)
15.03.2005 05:00 -0,4 C 92 % 1021 hPa 0,0 l/m N 0,0 km/h (0 Bft)
15.03.2005 06:00 -0,7 C 94 % 1021 hPa 0,0 l/m N 0,0 km/h (0 Bft)
15.03.2005 07:00 -0,1 C 97 % 1022 hPa 0,0 l/m NO 0,3 km/h (0 Bft)
15.03.2005 08:00 2,4 C 94 % 1023 hPa 0,0 l/m S-SO 7,0 km/h (2 Bft)
15.03.2005 09:00 6,3 C 69 % 1023 hPa 0,0 l/m S-SO 11,7 km/h (2 Bft)
15.03.2005 10:00 8,5 C 59 % 1024 hPa 0,0 l/m S 14,9 km/h (3 Bft)
15.03.2005 11:00 9,5 C 55 % 1024 hPa 0,0 l/m S 17,7 km/h (3 Bft)
15.03.2005 12:00 10,5 C 53 % 1024 hPa 0,0 l/m S 19,2 km/h (3 Bft)
15.03.2005 13:00 11,6 C 50 % 1024 hPa 0,0 l/m S 20,2 km/h (4 Bft)
15.03.2005 14:00 12,4 C 48 % 1024 hPa 0,0 l/m S 16,7 km/h (3 Bft)
15.03.2005 15:00 12,4 C 47 % 1024 hPa 0,0 l/m S-SO 16,6 km/h (3 Bft)
15.03.2005 16:00 12,5 C 46 % 1024 hPa 0,0 l/m S 14,4 km/h (3 Bft)
15.03.2005 17:00 12,1 C 47 % 1025 hPa 0,0 l/m S 10,0 km/h (2 Bft)
15.03.2005 18:00 9,6 C 53 % 1025 hPa 0,0 l/m S 4,6 km/h (1 Bft)
15.03.2005 19:00 7,8 C 63 % 1025 hPa 0,0 l/m S-SW 6,0 km/h (2 Bft)
15.03.2005 20:00 7,3 C 65 % 1026 hPa 0,0 l/m S 5,6 km/h (1 Bft)
15.03.2005 21:00 5,2 C 75 % 1027 hPa 0,0 l/m NO 0,4 km/h (0 Bft)
15.03.2005 22:00 4,1 C 78 % 1027 hPa 0,0 l/m N 0,0 km/h (0 Bft)
15.03.2005 23:00 2,9 C 80 % 1027 hPa 0,0 l/m N 0,0 km/h (0 Bft)
16.03.2005 00:00 2,0 C 85 % 1028 hPa 0,0 l/m N 0,0 km/h (0 Bft)
16.03.2005 01:00 1,5 C 88 % 1028 hPa 0,0 l/m N 0,0 km/h (0 Bft)
16.03.2005 02:00 1,1 C 91 % 1028 hPa 0,0 l/m N 0,0 km/h (0 Bft)
16.03.2005 03:00 0,3 C 91 % 1028 hPa 0,0 l/m N 0,0 km/h (0 Bft)
16.03.2005 04:00 -0,1 C 91 % 1028 hPa 0,0 l/m N 0,0 km/h (0 Bft)
16.03.2005 05:00 -0,4 C 92 % 1028 hPa 0,0 l/m N 0,0 km/h (0 Bft)
16.03.2005 06:00 -0,5 C 94 % 1028 hPa 0,0 l/m N 0,0 km/h (0 Bft)
16.03.2005 07:00 -0,1 C 94 % 1029 hPa 0,0 l/m N 0,0 km/h (0 Bft)
16.03.2005 08:00 2,1 C 92 % 1029 hPa 0,0 l/m N 0,1 km/h (0 Bft)
16.03.2005 09:00 7,1 C 60 % 1029 hPa 0,0 l/m S-SO 9,2 km/h (2 Bft)
16.03.2005 10:00 10,7 C 48 % 1030 hPa 0,0 l/m S-SO 12,3 km/h (3 Bft)
16.03.2005 11:00 12,2 C 46 % 1030 hPa 0,0 l/m S-SO 11,8 km/h (2 Bft)
16.03.2005 12:00 14,6 C 40 % 1029 hPa 0,0 l/m S-SO 14,3 km/h (3 Bft)
16.03.2005 13:00 16,5 C 37 % 1029 hPa 0,0 l/m S 13,7 km/h (3 Bft)
16.03.2005 14:00 17,0 C 34 % 1029 hPa 0,0 l/m S 14,8 km/h (3 Bft)
16.03.2005 15:00 16,6 C 32 % 1028 hPa 0,0 l/m S 15,4 km/h (3 Bft)
16.03.2005 16:00 16,4 C 33 % 1028 hPa 0,0 l/m S-SW 12,5 km/h (3 Bft)
16.03.2005 17:00 15,8 C 36 % 1028 hPa 0,0 l/m S 6,1 km/h (2 Bft)
16.03.2005 18:00 11,9 C 43 % 1028 hPa 0,0 l/m N 0,0 km/h (0 Bft)
16.03.2005 19:00 9,0 C 51 % 1028 hPa 0,0 l/m N 0,0 km/h (0 Bft)
16.03.2005 20:00 6,8 C 59 % 1028 hPa 0,0 l/m N 0,0 km/h (0 Bft)
16.03.2005 21:00 5,3 C 69 % 1028 hPa 0,0 l/m N 0,0 km/h (0 Bft)
16.03.2005 22:00 4,3 C 73 % 1028 hPa 0,0 l/m N 0,0 km/h (0 Bft)
16.03.2005 23:00 3,3 C 76 % 1029 hPa 0,0 l/m N 0,0 km/h (0 Bft)
17.03.2005 00:00 2,7 C 79 % 1029 hPa 0,0 l/m N 0,0 km/h (0 Bft)
17.03.2005 01:00 2,6 C 79 % 1029 hPa 0,0 l/m N 0,0 km/h (0 Bft)
17.03.2005 02:00 3,3 C 75 % 1029 hPa 0,0 l/m S-SO 7,5 km/h (2 Bft)
17.03.2005 03:00 3,4 C 71 % 1029 hPa 0,0 l/m SO 5,6 km/h (1 Bft)
17.03.2005 04:00 2,4 C 77 % 1029 hPa 0,0 l/m S-SO 4,6 km/h (1 Bft)
17.03.2005 05:00 2,4 C 76 % 1029 hPa 0,0 l/m O-NO 5,4 km/h (1 Bft)
17.03.2005 06:00 4,0 C 69 % 1029 hPa 0,0 l/m S-SO 13,1 km/h (3 Bft)
17.03.2005 07:00 6,8 C 57 % 1029 hPa 0,0 l/m S 16,6 km/h (3 Bft)
17.03.2005 08:00 7,7 C 57 % 1030 hPa 0,0 l/m S 19,6 km/h (3 Bft)
17.03.2005 09:00 11,6 C 48 % 1030 hPa 0,0 l/m S 21,9 km/h (4 Bft)
17.03.2005 10:00 13,7 C 44 % 1030 hPa 0,0 l/m S-SW 21,7 km/h (4 Bft)
17.03.2005 11:00 15,0 C 41 % 1030 hPa 0,0 l/m S 23,6 km/h (4 Bft)
17.03.2005 12:00 16,2 C 41 % 1029 hPa 0,0 l/m S 26,8 km/h (4 Bft)
17.03.2005 13:00 17,6 C 40 % 1029 hPa 0,0 l/m S-SW 24,8 km/h (4 Bft)
17.03.2005 14:00 18,0 C 39 % 1029 hPa 0,0 l/m S 22,6 km/h (4 Bft)
17.03.2005 15:00 17,8 C 42 % 1028 hPa 0,0 l/m S 15,7 km/h (3 Bft)
17.03.2005 16:00 18,0 C 41 % 1028 hPa 0,0 l/m S-SW 15,2 km/h (3 Bft)
17.03.2005 17:00 17,1 C 44 % 1028 hPa 0,0 l/m S-SW 10,9 km/h (2 Bft)
17.03.2005 18:00 15,6 C 47 % 1029 hPa 0,0 l/m SW 13,4 km/h (3 Bft)
17.03.2005 19:00 14,6 C 48 % 1029 hPa 0,0 l/m SW 11,8 km/h (2 Bft)
17.03.2005 20:00 13,9 C 50 % 1030 hPa 0,0 l/m SW 12,6 km/h (3 Bft)
17.03.2005 21:00 13,5 C 51 % 1030 hPa 0,0 l/m SW 12,5 km/h (3 Bft)
17.03.2005 22:00 11,4 C 58 % 1030 hPa 0,0 l/m S 5,1 km/h (1 Bft)
17.03.2005 23:00 9,5 C 67 % 1030 hPa 0,0 l/m S 3,3 km/h (1 Bft)
18.03.2005 00:00 8,2 C 73 % 1030 hPa 0,0 l/m N 0,0 km/h (0 Bft)
18.03.2005 01:00 6,5 C 76 % 1030 hPa 0,0 l/m SO 1,3 km/h (1 Bft)
18.03.2005 02:00 5,8 C 80 % 1030 hPa 0,0 l/m O 0,3 km/h (0 Bft)
18.03.2005 03:00 4,7 C 81 % 1030 hPa 0,0 l/m N 0,0 km/h (0 Bft)
18.03.2005 04:00 4,7 C 86 % 1030 hPa 0,0 l/m S-SO 0,6 km/h (0 Bft)
18.03.2005 05:00 4,9 C 86 % 1030 hPa 0,0 l/m N 0,1 km/h (0 Bft)
18.03.2005 06:00 4,1 C 86 % 1030 hPa 0,0 l/m O-SO 0,5 km/h (0 Bft)
18.03.2005 07:00 4,7 C 88 % 1030 hPa 0,0 l/m S-SO 1,7 km/h (1 Bft)
18.03.2005 08:00 7,8 C 77 % 1030 hPa 0,0 l/m S-SO 10,3 km/h (2 Bft)
18.03.2005 09:00 12,6 C 55 % 1030 hPa 0,0 l/m S-SO 11,7 km/h (2 Bft)
18.03.2005 10:00 15,3 C 52 % 1030 hPa 0,0 l/m S-SO 15,3 km/h (3 Bft)
18.03.2005 11:00 16,8 C 47 % 1030 hPa 0,0 l/m S 16,9 km/h (3 Bft)
18.03.2005 12:00 18,0 C 42 % 1029 hPa 0,0 l/m S-SW 18,7 km/h (3 Bft)
18.03.2005 13:00 19,4 C 38 % 1029 hPa 0,0 l/m SW 13,8 km/h (3 Bft)
18.03.2005 14:00 19,9 C 36 % 1028 hPa 0,0 l/m SW 14,6 km/h (3 Bft)
18.03.2005 15:00 19,5 C 36 % 1027 hPa 0,0 l/m S-SW 15,9 km/h (3 Bft)
18.03.2005 16:00 19,2 C 38 % 1026 hPa 0,0 l/m S 16,5 km/h (3 Bft)
18.03.2005 17:00 18,7 C 38 % 1026 hPa 0,0 l/m S-SW 11,3 km/h (2 Bft)
18.03.2005 18:00 16,5 C 44 % 1026 hPa 0,0 l/m SW 6,3 km/h (2 Bft)
18.03.2005 19:00 12,9 C 55 % 1026 hPa 0,0 l/m SW 2,5 km/h (1 Bft)
18.03.2005 20:00 11,1 C 59 % 1026 hPa 0,0 l/m W-SW 1,0 km/h (0 Bft)
18.03.2005 21:00 10,3 C 64 % 1026 hPa 0,0 l/m N 0,1 km/h (0 Bft)
18.03.2005 22:00 10,1 C 68 % 1026 hPa 0,0 l/m SW 0,2 km/h (0 Bft)
18.03.2005 23:00 9,7 C 71 % 1026 hPa 0,0 l/m N 0,0 km/h (0 Bft)
19.03.2005 00:00 9,6 C 71 % 1026 hPa 0,0 l/m S 0,7 km/h (0 Bft)
19.03.2005 01:00 9,4 C 73 % 1026 hPa 0,0 l/m S-SO 0,5 km/h (0 Bft)
19.03.2005 02:00 9,4 C 75 % 1025 hPa 0,0 l/m N 0,1 km/h (0 Bft)
19.03.2005 03:00 9,3 C 76 % 1025 hPa 0,0 l/m N 0,0 km/h (0 Bft)
19.03.2005 04:00 9,2 C 76 % 1025 hPa 0,0 l/m N 0,0 km/h (0 Bft)
19.03.2005 05:00 8,8 C 78 % 1025 hPa 0,0 l/m S-SO 5,7 km/h (1 Bft)
19.03.2005 06:00 8,7 C 75 % 1025 hPa 0,0 l/m S 4,5 km/h (1 Bft)
19.03.2005 07:00 8,8 C 76 % 1025 hPa 0,0 l/m O-SO 0,7 km/h (0 Bft)
19.03.2005 08:00 9,8 C 74 % 1025 hPa 0,0 l/m S-SO 3,1 km/h (1 Bft)
19.03.2005 09:00 11,8 C 65 % 1025 hPa 0,0 l/m SO 7,1 km/h (2 Bft)
19.03.2005 10:00 13,2 C 58 % 1024 hPa 0,0 l/m O-NO 2,0 km/h (1 Bft)
19.03.2005 11:00 15,8 C 53 % 1024 hPa 0,0 l/m W-SW 6,2 km/h (2 Bft)
19.03.2005 12:00 18,0 C 48 % 1023 hPa 0,0 l/m SW 10,1 km/h (2 Bft)
19.03.2005 13:00 18,3 C 47 % 1023 hPa 0,0 l/m W-SW 10,7 km/h (2 Bft)
19.03.2005 14:00 19,1 C 45 % 1022 hPa 0,0 l/m NW 7,9 km/h (2 Bft)
19.03.2005 15:00 18,2 C 48 % 1021 hPa 0,0 l/m NW 11,4 km/h (2 Bft)
19.03.2005 16:00 16,2 C 62 % 1021 hPa 0,0 l/m N 14,5 km/h (3 Bft)
19.03.2005 17:00 14,7 C 68 % 1021 hPa 0,0 l/m N 12,3 km/h (3 Bft)
19.03.2005 18:00 13,3 C 74 % 1022 hPa 0,0 l/m N 10,8 km/h (2 Bft)
19.03.2005 19:00 11,9 C 78 % 1022 hPa 0,0 l/m N 1,2 km/h (1 Bft)
19.03.2005 20:00 11,3 C 83 % 1022 hPa 0,0 l/m N 3,2 km/h (1 Bft)
19.03.2005 21:00 11,3 C 85 % 1022 hPa 0,0 l/m N-NO 6,5 km/h (2 Bft)
19.03.2005 22:00 11,1 C 85 % 1022 hPa 0,0 l/m N 7,0 km/h (2 Bft)
19.03.2005 23:00 10,8 C 88 % 1022 hPa 0,0 l/m N 8,3 km/h (2 Bft)
20.03.2005 00:00 9,5 C 96 % 1022 hPa 0,0 l/m N 10,2 km/h (2 Bft)
20.03.2005 01:00 8,9 C 98 % 1022 hPa 0,0 l/m N 12,7 km/h (3 Bft)
20.03.2005 02:00 7,7 C 95 % 1022 hPa 0,0 l/m N 14,0 km/h (3 Bft)
20.03.2005 03:00 7,2 C 94 % 1021 hPa 0,0 l/m N 11,0 km/h (2 Bft)
20.03.2005 04:00 6,9 C 95 % 1021 hPa 0,0 l/m N 9,0 km/h (2 Bft)
20.03.2005 05:00 6,8 C 96 % 1021 hPa 0,0 l/m N 7,4 km/h (2 Bft)
20.03.2005 06:00 6,7 C 95 % 1021 hPa 0,0 l/m N 6,0 km/h (2 Bft)
20.03.2005 07:00 6,8 C 94 % 1021 hPa 0,0 l/m N 7,6 km/h (2 Bft)
20.03.2005 08:00 7,0 C 93 % 1021 hPa 0,0 l/m N 11,8 km/h (2 Bft)
20.03.2005 09:00 7,4 C 92 % 1021 hPa 0,0 l/m N-NW 11,0 km/h (2 Bft)
20.03.2005 10:00 8,1 C 85 % 1021 hPa 0,0 l/m NW 12,9 km/h (3 Bft)
20.03.2005 11:00 7,7 C 84 % 1021 hPa 0,0 l/m NW 14,4 km/h (3 Bft)
20.03.2005 12:00 7,9 C 84 % 1021 hPa 0,0 l/m NW 17,1 km/h (3 Bft)
20.03.2005 13:00 8,4 C 81 % 1020 hPa 0,0 l/m N-NW 17,9 km/h (3 Bft)
20.03.2005 14:00 8,4 C 79 % 1020 hPa 0,0 l/m N-NW 16,0 km/h (3 Bft)
20.03.2005 15:00 8,6 C 77 % 1020 hPa 0,0 l/m N 15,5 km/h (3 Bft)
20.03.2005 16:00 8,3 C 77 % 1019 hPa 0,0 l/m N 14,6 km/h (3 Bft)
20.03.2005 17:00 8,3 C 76 % 1019 hPa 0,0 l/m N-NO 13,5 km/h (3 Bft)
20.03.2005 18:00 7,8 C 76 % 1019 hPa 0,0 l/m N 13,0 km/h (3 Bft)
20.03.2005 19:00 7,3 C 78 % 1019 hPa 0,0 l/m N 11,5 km/h (2 Bft)
20.03.2005 20:00 6,8 C 81 % 1019 hPa 0,0 l/m N 12,4 km/h (3 Bft)
20.03.2005 21:00 6,5 C 82 % 1019 hPa 0,0 l/m N 9,5 km/h (2 Bft)
20.03.2005 22:00 6,4 C 81 % 1019 hPa 0,0 l/m NO 10,5 km/h (2 Bft)
20.03.2005 23:00 5,9 C 80 % 1019 hPa 0,0 l/m NO 10,8 km/h (2 Bft)
Min-Datum _ 14.03.05 16.03.05 14.03.05 - - 14.03.05
_ Min-Zeit 06:45 15:40 00:00 - - 00:00
Minimum _ -7,1 C 30 % 1014 hPa - - 0,0 km/h (0 Bft)
Max-Datum _ 18.03.05 15.03.05 16.03.05 14.03.05 - 17.03.05
_ Max-Zeit 14:47 07:43 10:29 00:00 - 12:22
Maximum _ 20,1 C 98 % 1030 hPa 0,0 l/m - 39,3 km/h
S (6 Bft)
Durchschnitt _ 8,1 C 68 % 1024 hPa #0,0 l/m S 8,0 km/h (2 Bft)

Durchschnitt Minimum Temp.7,5 C
Durchschnitt Maximum Temp.8,7 C